This is the latest recevied weather packets stored in our database for station/object N0THY. If no packets are shown the sender has not sent any weather packets the latest 10 day(s).
| Time | Temp. | Humidity | Pressure | Rain* | Wind** | Luminosity | Snow |
|---|---|---|---|---|---|---|---|
| 1788139248 | 62° F | 66% | 767.8 mmHg | 0.47 in | - | - | - |
| 1788138345 | 68° F | 55% | 766.2 mmHg | 0.29 in | - | - | - |
| 1788137442 | 69° F | 54% | 765.4 mmHg | 0.29 in | - | - | - |
| 1788136539 | 69° F | 54% | 765.3 mmHg | 0.29 in | - | - | - |
| 1788135636 | 70° F | 53% | 765.3 mmHg | 0.29 in | - | - | - |
| 1788134733 | 71° F | 50% | 765.3 mmHg | 0.29 in | - | - | - |
| 1788133830 | 72° F | 48% | 765.5 mmHg | 0.29 in | - | - | - |
| 1788132024 | 73° F | 45% | 765.4 mmHg | 0.29 in | - | - | - |
| 1788131121 | 73° F | 45% | 765.4 mmHg | 0.29 in | - | - | - |
| 1788130218 | 73° F | 45% | 765.5 mmHg | 0.29 in | - | - | - |
| 1788129316 | 74° F | 44% | 765.7 mmHg | 0.29 in | - | - | - |
| 1788128413 | 74° F | 47% | 765.8 mmHg | 0.29 in | - | - | - |
| 1788127510 | 73° F | 49% | 766 mmHg | 0.29 in | - | - | - |
| 1788126607 | 72° F | 51% | 766 mmHg | 0.29 in | - | - | - |
| 1788123898 | 71° F | 55% | 766.6 mmHg | 0.29 in | - | - | - |
| 1788122995 | 70° F | 62% | 766.7 mmHg | 0.29 in | - | - | - |
| 1788122092 | 69° F | 70% | 766.9 mmHg | 0.29 in | - | - | - |
| 1788121189 | 67° F | 78% | 767.3 mmHg | 0.29 in | - | - | - |
| 1788120286 | 65° F | 82% | 767.4 mmHg | 0.29 in | - | - | - |
| 1788119383 | 64° F | 87% | 767.5 mmHg | 0.29 in | - | - | - |
| 1788118480 | 62° F | 87% | 767.6 mmHg | 0.29 in | - | - | - |
| 1788117577 | 61° F | 87% | 767.8 mmHg | 0.28 in | - | - | - |
| 1788116674 | 60° F | 88% | 767.9 mmHg | 0.27 in | - | - | - |
| 1788115771 | 60° F | 88% | 767.8 mmHg | 0.27 in | - | - | - |
| 1788114868 | 60° F | 87% | 767.6 mmHg | 0.26 in | - | - | - |
* Rain since midnight (hover to see other rain measurements)
** Current wind speed in m/s (hover to see current wind gust speed)